DRK153 VTBS-VQPR
Flight info
| Callsign | DRK153 |
|---|---|
| Flight time | 2h 49m |
| Altitude | 38000 |
| Route | TARED1G TARED G463 DAC W3 TEGAK/N0383F240 W3 SDP/N0450F370 R598 BOGOP |
| Aircraft | A319/M-SDE3FGHIRWY/LB1 |
Departure
| Time | 2025-09-05 06:28 |
|---|---|
| Airport | Suvarnabhumi Airport (VTBS) |
Arrival
| Time | 2025-09-05 09:18 |
|---|---|
| Airport | Paro International Airport (VQPR) |
| Time | Latitude | Longitude | Altitude | Speed | Heading |
|---|---|---|---|---|---|
| 2025-09-05 06:12 | 13.69206 | 100.74542 | 14 ft | 0 kts | 14° |
| 2025-09-05 06:19 | 13.69192 | 100.74538 | 16 ft | 3 kts | 22° |
| 2025-09-05 06:20 | 13.69145 | 100.74500 | 14 ft | 3 kts | 41° |
| 2025-09-05 06:21 | 13.69111 | 100.74480 | 15 ft | 3 kts | 14° |
| 2025-09-05 06:21 | 13.69078 | 100.74471 | 17 ft | 1 kts | 14° |
| 2025-09-05 06:23 | 13.69141 | 100.74442 | 13 ft | 0 kts | 298° |
| 2025-09-05 06:24 | 13.69177 | 100.74297 | 13 ft | 20 kts | 284° |
| 2025-09-05 06:24 | 13.69508 | 100.74284 | 14 ft | 33 kts | 13° |
| 2025-09-05 06:25 | 13.69939 | 100.74396 | 13 ft | 31 kts | 14° |
| 2025-09-05 06:25 | 13.70306 | 100.74475 | 14 ft | 21 kts | 331° |
| 2025-09-05 06:26 | 13.70288 | 100.74296 | 15 ft | 9 kts | 193° |
| 2025-09-05 06:26 | 13.69336 | 100.74049 | 15 ft | 130 kts | 194° |
| 2025-09-05 06:27 | 13.67207 | 100.73481 | 677 ft | 164 kts | 194° |
| 2025-09-05 06:27 | 13.66095 | 100.73188 | 1224 ft | 165 kts | 195° |
| 2025-09-05 06:27 | 13.63759 | 100.72573 | 2056 ft | 191 kts | 196° |
| 2025-09-05 06:28 | 13.59230 | 100.71375 | 3375 ft | 248 kts | 196° |
| 2025-09-05 06:29 | 13.55697 | 100.70382 | 4609 ft | 274 kts | 205° |
| 2025-09-05 06:29 | 13.53369 | 100.67450 | 6203 ft | 276 kts | 259° |
| 2025-09-05 06:30 | 13.53909 | 100.63559 | 7746 ft | 282 kts | 285° |
| 2025-09-05 06:30 | 13.55294 | 100.59779 | 9348 ft | 290 kts | 306° |
| 2025-09-05 06:31 | 13.58618 | 100.57438 | 9978 ft | 301 kts | 346° |
| 2025-09-05 06:31 | 13.60798 | 100.57269 | 10010 ft | 327 kts | 1° |
| 2025-09-05 06:31 | 13.65414 | 100.57420 | 10013 ft | 334 kts | 1° |
| 2025-09-05 06:32 | 13.72469 | 100.57619 | 11552 ft | 342 kts | 1° |
| 2025-09-05 06:33 | 13.77257 | 100.57414 | 12855 ft | 349 kts | 346° |
| 2025-09-05 06:33 | 13.81673 | 100.55360 | 14073 ft | 353 kts | 327° |
| 2025-09-05 06:33 | 13.83772 | 100.54031 | 14638 ft | 356 kts | 327° |
| 2025-09-05 06:34 | 13.88005 | 100.51372 | 15736 ft | 362 kts | 327° |
| 2025-09-05 06:34 | 13.92092 | 100.48308 | 16806 ft | 367 kts | 311° |
| 2025-09-05 06:35 | 13.94625 | 100.43775 | 17863 ft | 370 kts | 285° |
| 2025-09-05 06:36 | 13.95850 | 100.35856 | 19261 ft | 377 kts | 277° |
| 2025-09-05 06:36 | 13.96611 | 100.30476 | 20181 ft | 383 kts | 277° |
| 2025-09-05 06:36 | 13.96998 | 100.27756 | 20635 ft | 385 kts | 277° |
| 2025-09-05 06:37 | 14.00143 | 100.20106 | 21974 ft | 397 kts | 303° |
| 2025-09-05 06:37 | 14.01698 | 100.17721 | 22286 ft | 404 kts | 303° |
| 2025-09-05 06:38 | 14.04853 | 100.12860 | 23063 ft | 412 kts | 303° |
| 2025-09-05 06:38 | 14.08058 | 100.07912 | 23819 ft | 417 kts | 303° |
| 2025-09-05 06:39 | 14.11307 | 100.02906 | 24484 ft | 423 kts | 303° |
| 2025-09-05 06:41 | 14.22923 | 99.84944 | 26778 ft | 438 kts | 303° |
| 2025-09-05 06:42 | 14.34912 | 99.66383 | 28887 ft | 451 kts | 303° |
| 2025-09-05 06:45 | 14.49690 | 99.40972 | 31079 ft | 469 kts | 297° |
| 2025-09-05 06:47 | 14.61270 | 99.17971 | 33262 ft | 470 kts | 298° |
| 2025-09-05 06:49 | 14.73286 | 98.94069 | 35392 ft | 467 kts | 298° |
| 2025-09-05 06:50 | 14.83660 | 98.73384 | 37166 ft | 460 kts | 298° |
| 2025-09-05 06:53 | 14.96834 | 98.46976 | 37869 ft | 458 kts | 298° |
| 2025-09-05 06:54 | 15.07044 | 98.26450 | 37851 ft | 460 kts | 298° |
| 2025-09-05 06:57 | 15.27664 | 98.06515 | 37849 ft | 455 kts | 324° |
| 2025-09-05 06:59 | 15.47649 | 97.90397 | 37862 ft | 456 kts | 324° |
| 2025-09-05 07:01 | 15.67669 | 97.74209 | 37853 ft | 457 kts | 323° |
| 2025-09-05 07:02 | 15.85199 | 97.60002 | 37857 ft | 457 kts | 323° |
| 2025-09-05 07:05 | 16.08360 | 97.42625 | 37849 ft | 457 kts | 326° |
| 2025-09-05 07:06 | 16.26560 | 97.29341 | 37850 ft | 457 kts | 326° |
| 2025-09-05 07:09 | 16.49924 | 97.12271 | 37844 ft | 457 kts | 326° |
| 2025-09-05 07:10 | 16.68116 | 96.98935 | 37826 ft | 457 kts | 326° |
| 2025-09-05 07:13 | 16.91534 | 96.81729 | 37840 ft | 457 kts | 325° |
| 2025-09-05 07:14 | 17.09693 | 96.68361 | 37818 ft | 456 kts | 326° |
| 2025-09-05 07:17 | 17.32912 | 96.51005 | 37807 ft | 457 kts | 319° |
| 2025-09-05 07:18 | 17.49495 | 96.35400 | 37808 ft | 458 kts | 319° |
| 2025-09-05 07:21 | 17.70809 | 96.15301 | 37808 ft | 458 kts | 319° |
| 2025-09-05 07:22 | 17.87385 | 95.99619 | 37793 ft | 459 kts | 319° |
| 2025-09-05 07:25 | 18.08749 | 95.79332 | 37790 ft | 460 kts | 319° |
| 2025-09-05 07:26 | 18.25340 | 95.63553 | 37796 ft | 460 kts | 318° |
| 2025-09-05 07:28 | 18.44307 | 95.45443 | 37787 ft | 460 kts | 318° |
| 2025-09-05 07:30 | 18.63614 | 95.27733 | 37788 ft | 460 kts | 319° |
| 2025-09-05 07:32 | 18.82903 | 95.10002 | 37797 ft | 460 kts | 319° |
| 2025-09-05 07:34 | 19.01356 | 94.92992 | 37806 ft | 460 kts | 319° |
| 2025-09-05 07:36 | 19.20607 | 94.75191 | 37810 ft | 460 kts | 319° |
| 2025-09-05 07:38 | 19.39646 | 94.57112 | 37826 ft | 460 kts | 318° |
| 2025-09-05 07:41 | 19.60948 | 94.36639 | 37826 ft | 459 kts | 318° |
| 2025-09-05 07:42 | 19.77465 | 94.20712 | 37815 ft | 459 kts | 318° |
| 2025-09-05 07:45 | 19.98715 | 94.00167 | 37820 ft | 458 kts | 318° |
| 2025-09-05 07:46 | 20.15175 | 93.84165 | 37795 ft | 460 kts | 319° |
| 2025-09-05 07:49 | 20.36449 | 93.63462 | 37817 ft | 461 kts | 318° |
| 2025-09-05 07:50 | 20.53015 | 93.47260 | 37809 ft | 463 kts | 319° |
| 2025-09-05 07:52 | 20.72027 | 93.28614 | 37821 ft | 465 kts | 319° |
| 2025-09-05 07:54 | 20.91019 | 93.09922 | 37807 ft | 466 kts | 319° |
| 2025-09-05 07:57 | 21.12498 | 92.88711 | 37802 ft | 467 kts | 319° |
| 2025-09-05 07:58 | 21.29224 | 92.72119 | 37813 ft | 469 kts | 319° |
| 2025-09-05 08:01 | 21.50709 | 92.50739 | 37809 ft | 469 kts | 319° |
| 2025-09-05 08:02 | 21.67441 | 92.34035 | 37816 ft | 468 kts | 320° |
| 2025-09-05 08:05 | 21.90317 | 92.14324 | 37811 ft | 469 kts | 323° |
| 2025-09-05 08:06 | 22.07962 | 91.98667 | 37816 ft | 469 kts | 323° |
| 2025-09-05 08:09 | 22.30537 | 91.78481 | 37814 ft | 469 kts | 323° |
| 2025-09-05 08:10 | 22.48106 | 91.62666 | 37803 ft | 469 kts | 323° |
| 2025-09-05 08:13 | 22.70665 | 91.42264 | 37819 ft | 469 kts | 323° |
| 2025-09-05 08:14 | 22.88165 | 91.26368 | 37809 ft | 469 kts | 323° |
| 2025-09-05 08:16 | 23.08082 | 91.08198 | 37801 ft | 469 kts | 323° |
| 2025-09-05 08:18 | 23.28123 | 90.90053 | 37801 ft | 468 kts | 324° |
| 2025-09-05 08:21 | 23.50793 | 90.69764 | 37787 ft | 470 kts | 324° |
| 2025-09-05 08:22 | 23.68496 | 90.53863 | 37793 ft | 472 kts | 323° |
| 2025-09-05 08:25 | 23.88479 | 90.31837 | 37787 ft | 479 kts | 307° |
| 2025-09-05 08:26 | 24.01874 | 90.10973 | 37801 ft | 479 kts | 307° |
| 2025-09-05 08:29 | 24.19003 | 89.84088 | 37804 ft | 478 kts | 307° |
| 2025-09-05 08:30 | 24.32516 | 89.63438 | 37793 ft | 473 kts | 319° |
| 2025-09-05 08:33 | 24.58291 | 89.49253 | 37775 ft | 462 kts | 339° |
| 2025-09-05 08:34 | 24.78878 | 89.39174 | 37778 ft | 463 kts | 339° |
| 2025-09-05 08:37 | 25.05332 | 89.26195 | 37781 ft | 462 kts | 339° |
| 2025-09-05 08:38 | 25.25859 | 89.16068 | 37789 ft | 461 kts | 339° |
| 2025-09-05 08:41 | 25.52181 | 89.03016 | 37789 ft | 461 kts | 339° |
| 2025-09-05 08:42 | 25.72827 | 88.93861 | 37798 ft | 449 kts | 1° |
| 2025-09-05 08:45 | 25.94742 | 89.09609 | 37770 ft | 426 kts | 45° |
| 2025-09-05 08:46 | 26.10050 | 89.25285 | 37763 ft | 429 kts | 44° |
| 2025-09-05 08:49 | 26.30558 | 89.44746 | 37766 ft | 432 kts | 43° |
| 2025-09-05 08:50 | 26.48448 | 89.57663 | 37770 ft | 442 kts | 34° |
| 2025-09-05 08:52 | 26.69633 | 89.71811 | 37841 ft | 448 kts | 21° |
| 2025-09-05 08:54 | 26.93465 | 89.65141 | 35727 ft | 434 kts | 6° |
| 2025-09-05 08:56 | 27.05214 | 89.82116 | 34240 ft | 368 kts | 103° |
| 2025-09-05 08:58 | 26.91057 | 89.96795 | 32254 ft | 356 kts | 153° |
| 2025-09-05 09:00 | 26.72818 | 89.97228 | 30311 ft | 355 kts | 220° |
| 2025-09-05 09:02 | 26.71098 | 89.77550 | 28314 ft | 344 kts | 309° |
| 2025-09-05 09:04 | 26.86908 | 89.66480 | 26519 ft | 357 kts | 321° |
| 2025-09-05 09:06 | 26.97915 | 89.54889 | 24147 ft | 362 kts | 338° |
| 2025-09-05 09:06 | 27.02682 | 89.53771 | 23891 ft | 341 kts | 355° |
| 2025-09-05 09:07 | 27.07271 | 89.53244 | 23600 ft | 323 kts | 355° |
| 2025-09-05 09:07 | 27.11628 | 89.52726 | 23136 ft | 312 kts | 355° |
| 2025-09-05 09:08 | 27.15909 | 89.51756 | 22169 ft | 320 kts | 335° |
| 2025-09-05 09:08 | 27.19191 | 89.48380 | 21215 ft | 329 kts | 300° |
| 2025-09-05 09:09 | 27.21426 | 89.43823 | 20223 ft | 336 kts | 299° |
| 2025-09-05 09:09 | 27.23503 | 89.39059 | 19222 ft | 345 kts | 288° |
| 2025-09-05 09:10 | 27.24753 | 89.34766 | 18367 ft | 350 kts | 296° |
| 2025-09-05 09:10 | 27.28177 | 89.31053 | 17323 ft | 349 kts | 338° |
| 2025-09-05 09:11 | 27.32950 | 89.30526 | 16287 ft | 345 kts | 359° |
| 2025-09-05 09:11 | 27.38057 | 89.28511 | 15097 ft | 334 kts | 327° |
| 2025-09-05 09:12 | 27.41270 | 89.26277 | 14298 ft | 310 kts | 336° |
| 2025-09-05 09:13 | 27.46598 | 89.27144 | 13908 ft | 244 kts | 43° |
| 2025-09-05 09:13 | 27.47627 | 89.28566 | 14047 ft | 226 kts | 63° |
| 2025-09-05 09:13 | 27.48271 | 89.31644 | 13238 ft | 181 kts | 94° |
| 2025-09-05 09:14 | 27.47562 | 89.34155 | 12383 ft | 171 kts | 132° |
| 2025-09-05 09:14 | 27.45349 | 89.34701 | 11287 ft | 168 kts | 173° |
| 2025-09-05 09:15 | 27.43478 | 89.35938 | 10377 ft | 164 kts | 99° |
| 2025-09-05 09:15 | 27.43649 | 89.38466 | 9136 ft | 182 kts | 68° |
| 2025-09-05 09:16 | 27.43352 | 89.40878 | 8201 ft | 160 kts | 141° |
| 2025-09-05 09:16 | 27.41402 | 89.41811 | 7464 ft | 146 kts | 155° |
| 2025-09-05 09:17 | 27.40114 | 89.42603 | 7335 ft | 38 kts | 150° |
| 2025-09-05 09:17 | 27.39680 | 89.42880 | 7338 ft | 34 kts | 150° |
| 2025-09-05 09:18 | 27.39467 | 89.42907 | 7334 ft | 18 kts | 331° |
| 2025-09-05 09:18 | 27.39691 | 89.42769 | 7334 ft | 23 kts | 332° |
| 2025-09-05 09:19 | 27.40030 | 89.42550 | 7333 ft | 34 kts | 330° |
| 2025-09-05 09:19 | 27.40434 | 89.42294 | 7334 ft | 32 kts | 331° |
| 2025-09-05 09:20 | 27.40599 | 89.42133 | 7333 ft | 6 kts | 239° |
| 2025-09-05 09:20 | 27.40592 | 89.42120 | 7333 ft | 1 kts | 241° |
| 2025-09-05 09:24 | 27.40626 | 89.42102 | 7333 ft | 0 kts | 241° |
| 2025-09-05 09:31 | 27.40628 | 89.42106 | 7333 ft | 0 kts | 241° |